createdAt,value
2022-09-26T00:00:39.398Z,8.30
2022-09-26T00:03:12.930Z,8.29
2022-09-26T00:05:45.318Z,8.27
2022-09-26T00:08:17.801Z,8.22
2022-09-26T00:10:59.650Z,8.12
2022-09-26T00:13:33.833Z,8.07
2022-09-26T00:16:07.424Z,8.06
2022-09-26T00:18:38.610Z,8.03
2022-09-26T00:21:12.530Z,7.95
2022-09-26T00:23:46.441Z,7.93
2022-09-26T00:26:20.838Z,7.93
2022-09-26T00:28:54.208Z,7.94
2022-09-26T00:31:29.988Z,7.92
2022-09-26T00:34:02.309Z,7.90
2022-09-26T00:36:38.485Z,7.90
2022-09-26T00:39:13.130Z,7.87
2022-09-26T00:41:45.923Z,7.87
2022-09-26T00:44:42.707Z,7.88
2022-09-26T00:47:30.972Z,7.84
2022-09-26T00:50:06.602Z,7.83
2022-09-26T00:52:42.356Z,7.82
2022-09-26T00:55:16.956Z,7.77
2022-09-26T00:57:53.848Z,7.78
2022-09-26T01:00:26.250Z,7.78
2022-09-26T01:02:59.210Z,7.78
2022-09-26T01:05:32.853Z,7.77
2022-09-26T01:08:06.758Z,7.76
2022-09-26T01:10:39.681Z,7.74
2022-09-26T01:13:13.500Z,7.74
2022-09-26T01:15:45.550Z,7.71
2022-09-26T01:18:17.901Z,7.70
2022-09-26T01:20:58.450Z,7.69
2022-09-26T01:23:59.771Z,7.69
2022-09-26T01:26:46.758Z,7.66
2022-09-26T01:29:58.702Z,7.65
2022-09-26T01:32:51.731Z,7.62
2022-09-26T01:35:37.368Z,7.62
2022-09-26T01:38:22.120Z,7.62
2022-09-26T01:41:06.911Z,7.62
2022-09-26T01:43:49.419Z,7.63
2022-09-26T01:46:32.836Z,7.62
2022-09-26T01:49:13.445Z,7.64
2022-09-26T01:51:55.654Z,7.61
2022-09-26T01:54:36.651Z,7.61
2022-09-26T01:57:15.469Z,7.62
2022-09-26T01:59:54.650Z,7.66
2022-09-26T02:02:31.520Z,7.70
2022-09-26T02:05:10.178Z,7.74
2022-09-26T02:07:47.416Z,7.78
2022-09-26T02:10:23.669Z,7.82
2022-09-26T02:13:00.808Z,7.85
2022-09-26T02:15:36.571Z,7.91
2022-09-26T02:18:16.651Z,7.95
2022-09-26T02:20:53.278Z,8.00
2022-09-26T02:23:25.739Z,8.05
2022-09-26T02:26:00.287Z,8.08
2022-09-26T02:28:32.782Z,8.11
2022-09-26T02:31:08.647Z,8.16
2022-09-26T02:33:41.728Z,8.22
2022-09-26T02:36:14.749Z,8.29
2022-09-26T02:38:47.548Z,8.35
2022-09-26T02:41:50.594Z,8.39
2022-09-26T02:44:35.519Z,8.44
2022-09-26T02:47:37.439Z,8.47
2022-09-26T02:50:33.665Z,8.54
2022-09-26T02:53:17.908Z,8.60
2022-09-26T02:56:10.221Z,8.65
2022-09-26T02:58:59.019Z,8.68
2022-09-26T03:01:40.731Z,8.71
2022-09-26T03:04:20.245Z,8.75
2022-09-26T03:06:57.621Z,8.80
2022-09-26T03:09:31.641Z,8.83
2022-09-26T03:12:07.482Z,8.87
2022-09-26T03:14:44.295Z,8.87
2022-09-26T03:17:19.981Z,8.86
2022-09-26T03:19:59.413Z,8.87
2022-09-26T03:22:31.709Z,8.89
2022-09-26T03:25:05.210Z,8.87
2022-09-26T03:27:44.140Z,8.84
2022-09-26T03:30:19.064Z,8.82
2022-09-26T03:33:03.621Z,8.81
2022-09-26T03:35:36.651Z,8.80
2022-09-26T03:38:12.433Z,8.80
2022-09-26T03:40:49.759Z,8.77
2022-09-26T03:43:44.232Z,8.75
2022-09-26T03:46:17.418Z,8.74
2022-09-26T03:48:51.080Z,8.72
2022-09-26T03:51:23.457Z,8.69
2022-09-26T03:53:55.771Z,8.66
2022-09-26T03:56:29.194Z,8.57
2022-09-26T03:59:01.444Z,8.54
2022-09-26T04:01:34.108Z,8.56
2022-09-26T04:04:06.998Z,8.58
2022-09-26T04:06:39.610Z,8.61
2022-09-26T04:09:16.889Z,8.64
2022-09-26T04:11:52.860Z,8.68
2022-09-26T04:14:26.728Z,8.71
2022-09-26T04:17:02.473Z,8.71
2022-09-26T04:19:38.821Z,8.74
2022-09-26T04:22:11.418Z,8.76
2022-09-26T04:24:44.726Z,8.79
2022-09-26T04:27:20.927Z,8.82
2022-09-26T04:29:57.390Z,8.82
2022-09-26T04:32:42.408Z,8.82
2022-09-26T04:35:37.821Z,8.85
2022-09-26T04:38:12.400Z,8.89
2022-09-26T04:40:45.049Z,8.92
2022-09-26T04:43:17.538Z,8.95
2022-09-26T04:45:49.964Z,8.97
2022-09-26T04:48:23.928Z,8.99
2022-09-26T04:51:17.041Z,8.97
2022-09-26T04:53:50.870Z,8.98
2022-09-26T04:56:34.048Z,9.00
2022-09-26T04:59:06.632Z,9.01
2022-09-26T05:01:46.812Z,9.03
2022-09-26T05:04:27.631Z,9.04
2022-09-26T05:07:00.702Z,9.07
2022-09-26T05:09:36.330Z,9.09
2022-09-26T05:12:28.696Z,9.11
2022-09-26T05:15:02.088Z,9.13
2022-09-26T05:17:33.309Z,9.16
2022-09-26T05:20:09.060Z,9.13
2022-09-26T05:22:54.511Z,9.18
2022-09-26T05:25:44.413Z,9.21
2022-09-26T05:28:16.960Z,9.24
2022-09-26T05:30:50.709Z,9.26
2022-09-26T05:33:23.415Z,9.28
2022-09-26T05:35:59.561Z,9.31
2022-09-26T05:38:35.027Z,9.33
2022-09-26T05:41:07.906Z,9.39
2022-09-26T05:43:40.470Z,9.43
2022-09-26T05:46:17.006Z,9.47
2022-09-26T05:48:54.701Z,9.51
2022-09-26T05:51:27.459Z,9.55
2022-09-26T05:54:00.209Z,9.60
2022-09-26T05:56:37.609Z,9.65
2022-09-26T05:59:16.050Z,9.72
2022-09-26T06:02:09.937Z,9.79
2022-09-26T06:05:05.430Z,9.85
2022-09-26T06:08:03.151Z,9.91
2022-09-26T06:11:03.380Z,9.91
2022-09-26T06:13:36.199Z,9.94
2022-09-26T06:16:12.177Z,9.99
2022-09-26T06:18:44.490Z,10.03
2022-09-26T06:21:18.820Z,10.04
2022-09-26T06:23:54.114Z,10.03
2022-09-26T06:26:29.134Z,10.09
2022-09-26T06:29:02.799Z,10.17
2022-09-26T06:31:39.787Z,10.23
2022-09-26T06:34:16.217Z,10.29
2022-09-26T06:36:54.729Z,10.32
2022-09-26T06:39:35.945Z,10.39
2022-09-26T06:42:11.927Z,10.47
2022-09-26T06:45:03.790Z,10.56
2022-09-26T06:47:56.779Z,10.66
2022-09-26T06:50:40.100Z,10.79
2022-09-26T06:53:13.118Z,10.87
2022-09-26T06:55:47.105Z,10.92
2022-09-26T06:58:19.558Z,10.95
2022-09-26T07:01:18.849Z,11.00
2022-09-26T07:04:16.389Z,11.05
2022-09-26T07:06:58.403Z,11.10
2022-09-26T07:09:31.969Z,11.12
2022-09-26T07:12:19.998Z,11.17
2022-09-26T07:14:53.913Z,11.21
2022-09-26T07:17:33.999Z,11.26
2022-09-26T07:20:19.486Z,11.33
2022-09-26T07:23:14.809Z,11.39
2022-09-26T07:25:49.770Z,11.44
2022-09-26T07:28:23.566Z,11.49
2022-09-26T07:30:59.962Z,11.53
2022-09-26T07:33:48.042Z,11.57
2022-09-26T07:36:21.410Z,11.60
2022-09-26T07:38:54.119Z,11.63
2022-09-26T07:41:28.248Z,11.67
2022-09-26T07:47:11.021Z,11.82
2022-09-26T07:50:07.808Z,11.89
2022-09-26T07:52:44.061Z,11.95
2022-09-26T07:55:29.769Z,12.02
2022-09-26T07:58:14.339Z,12.07
2022-09-26T08:01:05.021Z,12.06
2022-09-26T08:03:58.575Z,12.12
2022-09-26T08:06:40.116Z,12.17
2022-09-26T08:09:13.523Z,12.16
2022-09-26T08:12:21.753Z,12.16
2022-09-26T08:15:09.371Z,12.25
2022-09-26T08:17:46.344Z,12.28
2022-09-26T08:20:21.829Z,12.34
2022-09-26T08:22:58.026Z,12.39
2022-09-26T08:25:33.384Z,12.42
2022-09-26T08:28:29.178Z,12.45
2022-09-26T08:31:05.714Z,12.55
2022-09-26T08:33:39.360Z,12.64
2022-09-26T08:36:12.130Z,12.71
2022-09-26T08:39:03.328Z,12.72
2022-09-26T08:42:14.149Z,12.82
2022-09-26T08:45:36.721Z,12.86
2022-09-26T08:48:43.917Z,12.86
2022-09-26T08:51:29.579Z,12.85
2022-09-26T08:54:10.850Z,12.85
2022-09-26T08:56:48.668Z,12.88
2022-09-26T08:59:29.058Z,12.96
2022-09-26T09:02:07.456Z,12.99
2022-09-26T09:05:08.396Z,13.00
2022-09-26T09:07:49.100Z,13.08
2022-09-26T09:10:28.111Z,13.12
2022-09-26T09:13:13.890Z,13.18
2022-09-26T09:16:23.446Z,13.23
2022-09-26T09:19:36.587Z,13.24
2022-09-26T09:23:04.802Z,13.25
2022-09-26T09:25:49.092Z,13.26
2022-09-26T09:28:38.138Z,13.27
2022-09-26T09:31:13.819Z,13.26
2022-09-26T09:34:12.195Z,13.18
2022-09-26T09:37:17.375Z,13.13
2022-09-26T09:39:54.055Z,13.16
2022-09-26T09:42:38.025Z,13.17
2022-09-26T09:45:19.870Z,13.24
2022-09-26T09:47:52.308Z,13.25
2022-09-26T09:50:49.171Z,13.35
2022-09-26T09:53:35.640Z,13.38
2022-09-26T09:56:19.068Z,13.39
2022-09-26T09:59:06.394Z,13.44
2022-09-26T10:02:01.664Z,13.35
2022-09-26T10:04:44.347Z,13.39
2022-09-26T10:07:21.930Z,13.48
2022-09-26T10:10:21.568Z,13.43
2022-09-26T10:13:24.329Z,13.55
2022-09-26T10:16:25.619Z,13.63
2022-09-26T10:19:09.241Z,13.62
2022-09-26T10:21:44.350Z,13.55
2022-09-26T10:24:34.565Z,13.50
2022-09-26T10:27:22.287Z,13.43
2022-09-26T10:30:02.147Z,13.56
2022-09-26T10:32:46.134Z,13.63
2022-09-26T10:35:47.236Z,13.71
2022-09-26T10:38:27.640Z,13.63
2022-09-26T10:41:27.835Z,13.62
2022-09-26T10:44:00.976Z,13.59
2022-09-26T10:46:54.505Z,13.73
2022-09-26T10:50:04.678Z,13.77
2022-09-26T10:53:17.640Z,13.70
2022-09-26T10:55:53.568Z,13.79
2022-09-26T10:58:30.122Z,13.66
2022-09-26T11:01:08.899Z,13.85
2022-09-26T11:03:47.380Z,13.88
2022-09-26T11:06:34.602Z,13.89
2022-09-26T11:09:23.937Z,13.91
2022-09-26T11:12:29.429Z,13.95
2022-09-26T11:15:10.517Z,14.02
2022-09-26T11:17:48.950Z,14.02
2022-09-26T11:20:47.819Z,13.92
2022-09-26T11:23:37.698Z,13.76
2022-09-26T11:26:18.539Z,14.02
2022-09-26T11:29:04.389Z,13.93
2022-09-26T11:32:00.505Z,13.96
2022-09-26T11:34:47.193Z,13.77
2022-09-26T11:37:36.772Z,13.73
2022-09-26T11:40:31.260Z,13.81
2022-09-26T11:43:28.703Z,13.92
2022-09-26T11:46:21.908Z,13.93
2022-09-26T11:49:36.737Z,14.17
2022-09-26T11:52:46.818Z,14.30
2022-09-26T11:55:31.351Z,14.28
2022-09-26T11:58:15.090Z,14.37
2022-09-26T12:00:58.796Z,14.56
2022-09-26T12:04:18.639Z,14.58
2022-09-26T12:07:02.174Z,14.63
2022-09-26T12:09:58.348Z,14.72
2022-09-26T12:12:42.208Z,14.58
2022-09-26T12:15:22.378Z,14.57
2022-09-26T12:18:07.991Z,14.52
2022-09-26T12:20:48.017Z,14.81
2022-09-26T12:23:27.721Z,15.09
2022-09-26T12:26:14.982Z,15.21
2022-09-26T12:29:04.148Z,15.35
2022-09-26T12:31:49.211Z,15.52
2022-09-26T12:34:33.471Z,15.62
2022-09-26T12:37:19.230Z,15.66
2022-09-26T12:40:10.682Z,15.61
2022-09-26T12:42:59.758Z,15.57
2022-09-26T12:45:53.150Z,15.47
2022-09-26T12:48:43.498Z,15.47
2022-09-26T12:51:31.830Z,15.43
2022-09-26T12:54:25.240Z,15.49
2022-09-26T12:57:05.380Z,15.49
2022-09-26T12:59:58.477Z,15.51
2022-09-26T13:02:58.236Z,15.55
2022-09-26T13:05:59.431Z,15.56
2022-09-26T13:08:40.402Z,15.49
2022-09-26T13:11:32.353Z,15.39
2022-09-26T13:14:39.919Z,15.34
2022-09-26T13:17:19.117Z,15.23
2022-09-26T13:19:59.681Z,15.30
2022-09-26T13:22:39.970Z,15.34
2022-09-26T13:25:20.904Z,15.51
2022-09-26T13:27:58.206Z,15.64
2022-09-26T13:30:35.594Z,15.76
2022-09-26T13:33:11.829Z,15.79
2022-09-26T13:35:56.738Z,15.87
2022-09-26T13:38:47.948Z,15.95
2022-09-26T13:41:35.461Z,16.08
2022-09-26T13:44:23.768Z,16.08
2022-09-26T13:47:06.888Z,16.05
2022-09-26T13:49:53.672Z,16.07
2022-09-26T13:52:37.209Z,16.21
2022-09-26T13:55:20.200Z,15.89
2022-09-26T13:58:07.090Z,15.92
2022-09-26T14:00:54.994Z,16.16
2022-09-26T14:03:44.579Z,15.99
2022-09-26T14:06:39.122Z,15.98
2022-09-26T14:09:41.338Z,15.95
2022-09-26T14:12:53.190Z,15.77
2022-09-26T14:15:28.745Z,15.59
2022-09-26T14:18:22.928Z,15.44
2022-09-26T14:21:09.021Z,15.46
2022-09-26T14:23:44.236Z,15.47
2022-09-26T14:26:20.260Z,15.53
2022-09-26T14:28:56.670Z,15.59
2022-09-26T14:32:02.299Z,15.58
2022-09-26T14:34:39.829Z,15.65
2022-09-26T14:37:31.196Z,15.56
2022-09-26T14:40:20.986Z,15.42
2022-09-26T14:43:38.980Z,15.44
2022-09-26T14:46:20.999Z,15.42
2022-09-26T14:49:02.060Z,15.43
2022-09-26T14:51:37.734Z,15.45
2022-09-26T14:54:20.900Z,15.34
2022-09-26T14:57:00.880Z,15.39
2022-09-26T14:59:46.917Z,15.41
2022-09-26T15:02:39.891Z,15.50
2022-09-26T15:05:29.130Z,15.43
2022-09-26T15:08:01.866Z,15.43
2022-09-26T15:10:43.400Z,15.54
2022-09-26T15:13:28.549Z,15.54
2022-09-26T15:16:11.778Z,15.60
2022-09-26T15:18:48.092Z,15.63
2022-09-26T15:21:33.193Z,15.52
2022-09-26T15:24:24.226Z,15.45
2022-09-26T15:26:58.940Z,15.34
2022-09-26T15:29:31.880Z,15.34
2022-09-26T15:32:07.173Z,15.32
2022-09-26T15:34:42.510Z,15.23
2022-09-26T15:37:21.461Z,15.20
2022-09-26T15:39:53.991Z,15.11
2022-09-26T15:42:49.569Z,15.02
2022-09-26T15:45:33.706Z,14.96
2022-09-26T15:48:25.864Z,14.87
2022-09-26T15:51:03.108Z,14.78
2022-09-26T15:53:39.962Z,14.69
2022-09-26T15:56:15.130Z,14.57
2022-09-26T15:58:52.910Z,14.49
2022-09-26T16:01:28.381Z,14.39
2022-09-26T16:04:04.557Z,14.34
2022-09-26T16:06:39.631Z,14.27
2022-09-26T16:09:22.621Z,14.18
2022-09-26T16:11:58.451Z,14.10
2022-09-26T16:14:41.557Z,14.07
2022-09-26T16:17:24.692Z,14.04
2022-09-26T16:19:58.678Z,14.02
2022-09-26T16:22:47.532Z,13.99
2022-09-26T16:25:34.582Z,13.92
2022-09-26T16:28:42.390Z,13.77
2022-09-26T16:31:29.832Z,13.57
2022-09-26T16:34:03.048Z,13.45
2022-09-26T16:36:36.790Z,13.34
2022-09-26T16:39:20.770Z,13.29
2022-09-26T16:42:03.356Z,13.28
2022-09-26T16:44:40.403Z,13.21
2022-09-26T16:47:42.342Z,13.14
2022-09-26T16:50:31.429Z,13.08
2022-09-26T16:53:06.768Z,13.04
2022-09-26T16:55:39.160Z,13.01
2022-09-26T16:58:16.353Z,12.97
2022-09-26T17:01:17.190Z,12.90
2022-09-26T17:03:49.888Z,12.86
2022-09-26T17:06:22.474Z,12.86
2022-09-26T17:08:54.949Z,12.85
2022-09-26T17:11:29.419Z,12.83
2022-09-26T17:14:01.878Z,12.79
2022-09-26T17:16:34.768Z,12.73
2022-09-26T17:19:07.233Z,12.70
2022-09-26T17:21:40.051Z,12.66
2022-09-26T17:24:17.291Z,12.65
2022-09-26T17:26:55.489Z,12.62
2022-09-26T17:29:31.982Z,12.57
2022-09-26T17:32:14.133Z,12.57
2022-09-26T17:34:47.271Z,12.51
2022-09-26T17:37:22.220Z,12.47
2022-09-26T17:39:55.369Z,12.44
2022-09-26T17:42:30.548Z,12.35
2022-09-26T17:45:04.638Z,12.22
2022-09-26T17:47:37.299Z,12.18
2022-09-26T17:50:13.860Z,12.17
2022-09-26T17:52:47.639Z,12.15
2022-09-26T17:55:24.939Z,12.10
2022-09-26T17:57:58.619Z,12.05
2022-09-26T18:00:38.637Z,12.06
2022-09-26T18:03:19.345Z,12.03
2022-09-26T18:05:52.499Z,11.96
2022-09-26T18:08:28.691Z,11.88
2022-09-26T18:11:03.871Z,11.81
2022-09-26T18:13:38.438Z,11.78
2022-09-26T18:16:18.576Z,11.82
2022-09-26T18:18:52.250Z,11.86
2022-09-26T18:21:26.681Z,11.88
2022-09-26T18:24:02.770Z,11.90
2022-09-26T18:26:37.497Z,11.91
2022-09-26T18:29:13.173Z,11.91
2022-09-26T18:31:48.047Z,11.86
2022-09-26T18:34:20.689Z,11.88
2022-09-26T18:36:57.431Z,11.84
2022-09-26T18:39:30.732Z,11.84
2022-09-26T18:42:09.513Z,11.85
2022-09-26T18:44:43.341Z,11.83
2022-09-26T18:47:18.678Z,11.82
2022-09-26T18:49:52.929Z,11.80
2022-09-26T18:52:25.584Z,11.82
2022-09-26T18:55:11.747Z,11.80
2022-09-26T18:58:01.471Z,11.77
2022-09-26T19:00:34.951Z,11.76
2022-09-26T19:03:08.188Z,11.75
2022-09-26T19:05:40.779Z,11.70
2022-09-26T19:08:29.089Z,11.68
2022-09-26T19:11:04.357Z,11.63
2022-09-26T19:13:36.869Z,11.60
2022-09-26T19:16:10.978Z,11.53
2022-09-26T19:18:44.292Z,11.47
2022-09-26T19:21:25.418Z,11.42
2022-09-26T19:23:58.710Z,11.38
2022-09-26T19:26:38.060Z,11.36
2022-09-26T19:29:14.920Z,11.36
2022-09-26T19:31:47.350Z,11.31
2022-09-26T19:34:22.243Z,11.31
2022-09-26T19:36:55.651Z,11.25
2022-09-26T19:39:29.006Z,11.26
2022-09-26T19:42:01.951Z,11.29
2022-09-26T19:44:34.572Z,11.31
2022-09-26T19:47:07.364Z,11.31
2022-09-26T19:49:39.810Z,11.28
2022-09-26T19:52:18.579Z,11.26
2022-09-26T19:54:51.148Z,11.23
2022-09-26T19:57:25.480Z,11.24
2022-09-26T19:59:57.846Z,11.25
2022-09-26T20:02:35.965Z,11.28
2022-09-26T20:05:19.579Z,11.30
2022-09-26T20:07:52.704Z,11.30
2022-09-26T20:10:26.831Z,11.25
2022-09-26T20:12:59.308Z,11.17
2022-09-26T20:15:33.236Z,11.12
2022-09-26T20:18:07.473Z,11.11
2022-09-26T20:20:40.770Z,11.11
2022-09-26T20:23:20.080Z,11.09
2022-09-26T20:25:54.355Z,11.06
2022-09-26T20:28:27.012Z,11.04
2022-09-26T20:30:59.701Z,11.03
2022-09-26T20:33:33.636Z,11.01
2022-09-26T20:36:08.848Z,10.99
2022-09-26T20:38:46.132Z,10.98
2022-09-26T20:41:24.029Z,10.93
2022-09-26T20:44:02.133Z,10.88
2022-09-26T20:46:40.348Z,10.85
2022-09-26T20:49:21.200Z,10.80
2022-09-26T20:51:55.234Z,10.71
2022-09-26T20:54:32.518Z,10.69
2022-09-26T20:57:04.989Z,10.60
2022-09-26T20:59:37.550Z,10.61
2022-09-26T21:02:28.632Z,10.58
2022-09-26T21:05:02.529Z,10.55
2022-09-26T21:07:35.400Z,10.52
2022-09-26T21:10:25.871Z,10.47
2022-09-26T21:12:58.796Z,10.43
2022-09-26T21:15:32.550Z,10.41
2022-09-26T21:18:06.987Z,10.36
2022-09-26T21:20:40.878Z,10.31
2022-09-26T21:23:32.341Z,10.25
2022-09-26T21:26:04.459Z,10.12
2022-09-26T21:28:36.926Z,10.09
2022-09-26T21:31:20.275Z,10.07
2022-09-26T21:33:53.710Z,10.04
2022-09-26T21:36:32.673Z,9.99
2022-09-26T21:39:09.913Z,9.97
2022-09-26T21:41:44.528Z,9.92
2022-09-26T21:44:24.858Z,9.93
2022-09-26T21:46:57.330Z,9.92
2022-09-26T21:49:29.838Z,9.92
2022-09-26T21:52:10.758Z,9.95
2022-09-26T21:54:45.775Z,9.97
2022-09-26T21:57:22.464Z,10.00
2022-09-26T21:59:56.140Z,10.03
2022-09-26T22:02:28.971Z,10.03
2022-09-26T22:05:01.428Z,10.02
2022-09-26T22:07:33.770Z,10.00
2022-09-26T22:10:07.239Z,9.98
2022-09-26T22:12:39.909Z,9.98
2022-09-26T22:15:14.131Z,9.93
2022-09-26T22:17:46.649Z,9.86
2022-09-26T22:20:20.171Z,9.79
2022-09-26T22:22:52.769Z,9.71
2022-09-26T22:25:25.698Z,9.62
2022-09-26T22:27:58.110Z,9.58
2022-09-26T22:30:30.634Z,9.56
2022-09-26T22:33:03.100Z,9.53
2022-09-26T22:35:36.549Z,9.49
2022-09-26T22:38:09.820Z,9.47
2022-09-26T22:40:42.444Z,9.45
2022-09-26T22:43:15.112Z,9.43
2022-09-26T22:45:47.628Z,9.39
2022-09-26T22:48:20.541Z,9.36
2022-09-26T22:50:53.489Z,9.35
2022-09-26T22:53:25.820Z,9.33
2022-09-26T22:56:05.514Z,9.30
2022-09-26T22:58:41.501Z,9.22
2022-09-26T23:01:16.398Z,9.12
2022-09-26T23:03:48.861Z,9.10
2022-09-26T23:06:21.880Z,9.10
2022-09-26T23:08:54.860Z,9.08
2022-09-26T23:11:28.298Z,9.08
2022-09-26T23:14:02.034Z,9.07
2022-09-26T23:16:34.432Z,9.04
2022-09-26T23:19:06.966Z,8.98
2022-09-26T23:21:39.560Z,8.98
2022-09-26T23:24:12.129Z,8.94
2022-09-26T23:26:44.660Z,8.91
2022-09-26T23:29:19.690Z,8.87
2022-09-26T23:31:52.560Z,8.83
2022-09-26T23:34:24.840Z,8.79
2022-09-26T23:37:00.281Z,8.75
2022-09-26T23:39:33.718Z,8.74
2022-09-26T23:42:04.330Z,8.69
2022-09-26T23:44:36.691Z,8.61
2022-09-26T23:47:09.049Z,8.61
2022-09-26T23:49:41.598Z,8.60
2022-09-26T23:52:17.598Z,8.58
2022-09-26T23:54:50.588Z,8.56
2022-09-26T23:57:23.669Z,8.55
2022-09-26T23:59:56.709Z,8.53
